createdAt,value
2018-12-16T00:00:43.979Z,36.67
2018-12-16T00:03:11.374Z,34.63
2018-12-16T00:05:38.828Z,34.73
2018-12-16T00:08:06.252Z,31.73
2018-12-16T00:10:33.728Z,37.27
2018-12-16T00:13:01.177Z,43.40
2018-12-16T00:15:28.585Z,33.13
2018-12-16T00:17:55.962Z,32.80
2018-12-16T00:20:23.368Z,32.80
2018-12-16T00:22:50.795Z,30.40
2018-12-16T00:25:18.360Z,32.13
2018-12-16T00:27:45.839Z,34.10
2018-12-16T00:30:13.288Z,31.00
2018-12-16T00:32:40.707Z,35.57
2018-12-16T00:35:08.320Z,33.87
2018-12-16T00:37:35.724Z,32.13
2018-12-16T00:40:03.343Z,31.77
2018-12-16T00:42:30.767Z,33.10
2018-12-16T00:44:58.143Z,27.67
2018-12-16T00:47:25.567Z,32.10
2018-12-16T00:49:53.083Z,28.43
2018-12-16T00:52:20.515Z,36.60
2018-12-16T00:54:47.951Z,29.30
2018-12-16T00:57:15.367Z,32.50
2018-12-16T00:59:42.775Z,26.83
2018-12-16T01:02:16.028Z,30.83
2018-12-16T01:04:43.547Z,28.90
2018-12-16T01:07:10.990Z,27.37
2018-12-16T01:09:38.401Z,27.87
2018-12-16T01:12:05.775Z,29.20
2018-12-16T01:14:33.199Z,27.33
2018-12-16T01:17:00.600Z,27.63
2018-12-16T01:19:28.022Z,27.97
2018-12-16T01:21:55.422Z,26.37
2018-12-16T01:24:22.826Z,27.10
2018-12-16T01:26:50.258Z,27.60
2018-12-16T01:29:17.662Z,26.80
2018-12-16T01:31:45.066Z,27.97
2018-12-16T01:34:12.567Z,31.40
2018-12-16T01:36:40.124Z,27.20
2018-12-16T01:39:07.528Z,29.57
2018-12-16T01:41:34.973Z,25.43
2018-12-16T01:44:02.970Z,24.63
2018-12-16T01:46:30.685Z,28.37
2018-12-16T01:48:58.087Z,28.73
2018-12-16T01:51:25.470Z,27.00
2018-12-16T01:53:52.886Z,27.60
2018-12-16T01:56:20.301Z,25.53
2018-12-16T01:58:47.693Z,24.97
2018-12-16T02:01:15.129Z,25.80
2018-12-16T02:03:42.561Z,23.70
2018-12-16T02:06:09.984Z,24.20
2018-12-16T02:08:37.431Z,26.33
2018-12-16T02:11:05.104Z,28.17
2018-12-16T02:13:32.472Z,24.97
2018-12-16T02:15:59.905Z,24.03
2018-12-16T02:18:27.337Z,23.50
2018-12-16T02:20:54.779Z,21.20
2018-12-16T02:23:22.163Z,28.03
2018-12-16T02:25:49.597Z,23.50
2018-12-16T02:28:16.979Z,24.53
2018-12-16T02:30:44.476Z,25.20
2018-12-16T02:33:12.011Z,24.93
2018-12-16T02:35:39.410Z,20.23
2018-12-16T02:38:06.796Z,20.73
2018-12-16T02:40:34.196Z,24.93
2018-12-16T02:43:01.623Z,21.30
2018-12-16T02:45:29.032Z,22.30
2018-12-16T02:47:56.460Z,24.20
2018-12-16T02:50:23.846Z,25.47
2018-12-16T02:52:51.272Z,22.37
2018-12-16T02:55:18.672Z,21.57
2018-12-16T02:57:46.057Z,23.57
2018-12-16T03:00:13.673Z,21.27
2018-12-16T03:02:41.047Z,22.63
2018-12-16T03:05:08.507Z,20.17
2018-12-16T03:07:35.990Z,19.13
2018-12-16T03:10:04.195Z,20.83
2018-12-16T03:12:31.625Z,20.50
2018-12-16T03:14:59.039Z,21.20
2018-12-16T03:20:00.597Z,22.80
2018-12-16T03:22:28.001Z,20.33
2018-12-16T03:24:55.424Z,24.17
2018-12-16T03:27:22.846Z,24.90
2018-12-16T03:29:50.224Z,21.10
2018-12-16T03:32:17.660Z,22.40
2018-12-16T03:34:45.045Z,23.47
2018-12-16T03:37:12.443Z,25.73
2018-12-16T03:39:39.820Z,22.97
2018-12-16T03:42:07.347Z,20.60
2018-12-16T03:44:34.761Z,24.27
2018-12-16T03:47:02.175Z,23.73
2018-12-16T03:49:29.673Z,27.97
2018-12-16T03:51:57.139Z,27.00
2018-12-16T03:54:24.500Z,29.57
2018-12-16T03:56:51.919Z,31.83
2018-12-16T03:59:19.736Z,28.13
2018-12-16T04:01:53.054Z,30.90
2018-12-16T04:04:20.422Z,25.87
2018-12-16T04:06:47.807Z,28.77
2018-12-16T04:09:15.236Z,29.70
2018-12-16T04:11:42.598Z,27.17
2018-12-16T04:14:10.055Z,28.00
2018-12-16T04:16:37.430Z,27.87
2018-12-16T04:19:04.958Z,27.37
2018-12-16T04:21:32.338Z,27.43
2018-12-16T04:23:59.768Z,24.83
2018-12-16T04:26:27.166Z,26.63
2018-12-16T04:28:54.532Z,26.70
2018-12-16T04:31:21.925Z,26.30
2018-12-16T04:33:49.293Z,29.47
2018-12-16T04:36:16.733Z,27.03
2018-12-16T04:38:44.136Z,23.07
2018-12-16T04:41:11.538Z,26.30
2018-12-16T04:43:38.938Z,31.47
2018-12-16T04:46:06.348Z,27.50
2018-12-16T04:48:33.770Z,32.07
2018-12-16T04:51:01.194Z,26.27
2018-12-16T04:53:35.135Z,28.27
2018-12-16T04:55:58.131Z,30.53
2018-12-16T04:58:25.531Z,29.30
2018-12-16T05:00:53.104Z,27.17
2018-12-16T05:03:20.521Z,28.57
2018-12-16T05:05:47.965Z,27.37
2018-12-16T05:08:15.536Z,29.23
2018-12-16T05:10:43.081Z,24.60
2018-12-16T05:13:10.488Z,23.23
2018-12-16T05:15:37.898Z,25.80
2018-12-16T05:18:05.286Z,26.43
2018-12-16T05:20:32.700Z,27.83
2018-12-16T05:23:00.132Z,24.67
2018-12-16T05:25:27.514Z,26.93
2018-12-16T05:27:54.932Z,23.83
2018-12-16T05:30:22.386Z,24.33
2018-12-16T05:32:49.796Z,22.77
2018-12-16T05:35:17.287Z,23.23
2018-12-16T05:37:44.708Z,25.13
2018-12-16T05:40:12.242Z,22.97
2018-12-16T05:42:39.711Z,24.50
2018-12-16T05:45:07.348Z,22.93
2018-12-16T05:47:34.778Z,21.23
2018-12-16T05:50:02.295Z,20.57
2018-12-16T05:52:29.715Z,18.13
2018-12-16T05:54:57.848Z,20.30
2018-12-16T05:57:25.360Z,21.37
2018-12-16T05:59:52.757Z,19.83
2018-12-16T06:02:20.199Z,16.43
2018-12-16T06:04:47.618Z,20.53
2018-12-16T06:07:15.025Z,17.17
2018-12-16T06:09:42.451Z,18.00
2018-12-16T06:12:09.881Z,17.27
2018-12-16T06:14:37.301Z,16.37
2018-12-16T06:17:04.713Z,16.97
2018-12-16T06:19:32.140Z,18.60
2018-12-16T06:21:59.577Z,18.63
2018-12-16T06:24:27.032Z,16.70
2018-12-16T06:26:54.406Z,17.03
2018-12-16T06:29:21.829Z,18.03
2018-12-16T06:31:49.239Z,18.63
2018-12-16T06:34:16.686Z,18.50
2018-12-16T06:36:44.092Z,16.87
2018-12-16T06:39:11.512Z,14.63
2018-12-16T06:41:38.913Z,16.67
2018-12-16T06:44:06.426Z,16.73
2018-12-16T06:46:33.875Z,15.87
2018-12-16T06:49:01.310Z,16.70
2018-12-16T06:51:28.733Z,16.97
2018-12-16T06:54:02.156Z,14.93
2018-12-16T06:56:25.618Z,17.77
2018-12-16T06:58:53.071Z,15.63
2018-12-16T07:01:20.602Z,16.57
2018-12-16T07:03:47.981Z,16.57
2018-12-16T07:06:15.624Z,16.20
2018-12-16T07:08:43.090Z,14.17
2018-12-16T07:11:10.513Z,17.13
2018-12-16T07:13:38.064Z,14.97
2018-12-16T07:16:05.485Z,14.43
2018-12-16T07:18:32.872Z,16.40
2018-12-16T07:21:00.254Z,15.30
2018-12-16T07:23:28.416Z,15.87
2018-12-16T07:25:55.849Z,16.53
2018-12-16T07:28:23.305Z,16.50
2018-12-16T07:30:50.848Z,15.50
2018-12-16T07:33:18.384Z,12.50
2018-12-16T07:35:45.784Z,16.23
2018-12-16T07:38:13.173Z,14.13
2018-12-16T07:40:40.581Z,14.13
2018-12-16T07:43:08.031Z,15.83
2018-12-16T07:45:35.673Z,17.30
2018-12-16T07:48:03.130Z,12.17
2018-12-16T07:50:30.617Z,14.73
2018-12-16T07:52:58.034Z,14.73
2018-12-16T07:55:25.488Z,11.67
2018-12-16T07:57:53.074Z,12.53
2018-12-16T08:00:20.501Z,10.47
2018-12-16T08:02:47.971Z,15.10
2018-12-16T08:05:15.417Z,11.83
2018-12-16T08:07:42.818Z,14.10
2018-12-16T08:10:10.186Z,11.60
2018-12-16T08:12:37.600Z,15.00
2018-12-16T08:15:05.822Z,14.40
2018-12-16T08:17:33.256Z,11.60
2018-12-16T08:20:00.677Z,11.60
2018-12-16T08:22:28.154Z,11.83
2018-12-16T08:24:55.550Z,13.77
2018-12-16T08:27:22.977Z,11.93
2018-12-16T08:29:50.387Z,11.63
2018-12-16T08:32:17.894Z,14.33
2018-12-16T08:34:45.286Z,13.13
2018-12-16T08:37:12.672Z,11.70
2018-12-16T08:39:40.096Z,13.10
2018-12-16T08:42:07.621Z,11.13
2018-12-16T08:44:35.087Z,20.70
2018-12-16T08:47:02.505Z,17.27
2018-12-16T08:49:29.893Z,17.03
2018-12-16T08:51:57.293Z,11.37
2018-12-16T08:54:30.070Z,11.47
2018-12-16T08:56:54.167Z,13.40
2018-12-16T08:59:21.648Z,14.27
2018-12-16T09:01:49.074Z,14.07
2018-12-16T09:04:16.923Z,13.47
2018-12-16T09:06:44.350Z,13.63
2018-12-16T09:09:12.112Z,15.67
2018-12-16T09:11:39.554Z,17.10
2018-12-16T09:14:06.975Z,14.40
2018-12-16T09:16:34.457Z,14.90
2018-12-16T09:19:01.848Z,14.00
2018-12-16T09:21:29.258Z,11.53
2018-12-16T09:23:56.732Z,11.33
2018-12-16T09:26:24.158Z,12.23
2018-12-16T09:28:51.547Z,14.70
2018-12-16T09:31:18.986Z,14.17
2018-12-16T09:33:46.372Z,11.90
2018-12-16T09:36:13.810Z,13.23
2018-12-16T09:38:41.209Z,14.03
2018-12-16T09:41:08.712Z,14.07
2018-12-16T09:43:36.129Z,13.33
2018-12-16T09:46:03.639Z,15.37
2018-12-16T09:48:31.047Z,13.90
2018-12-16T09:50:58.511Z,12.80
2018-12-16T09:53:25.967Z,12.83
2018-12-16T09:55:53.445Z,15.50
2018-12-16T09:58:20.967Z,13.67
2018-12-16T10:00:48.400Z,13.63
2018-12-16T10:03:15.857Z,11.07
2018-12-16T10:05:43.261Z,12.50
2018-12-16T10:08:10.729Z,13.43
2018-12-16T10:10:38.121Z,13.20
2018-12-16T10:13:05.670Z,15.83
2018-12-16T10:15:33.153Z,29.23
2018-12-16T10:18:00.649Z,11.73
2018-12-16T10:20:41.289Z,12.37
2018-12-16T10:23:09.379Z,15.13
2018-12-16T10:25:36.817Z,11.50
2018-12-16T10:28:04.217Z,14.73
2018-12-16T10:30:31.711Z,11.73
2018-12-16T10:32:59.112Z,13.10
2018-12-16T10:35:26.516Z,14.47
2018-12-16T10:37:53.956Z,12.13
2018-12-16T10:40:21.340Z,13.53
2018-12-16T10:42:48.840Z,14.80
2018-12-16T10:45:16.319Z,10.83
2018-12-16T10:47:43.730Z,16.47
2018-12-16T10:50:11.198Z,15.10
2018-12-16T10:52:38.582Z,14.20
2018-12-16T10:55:06.423Z,16.67
2018-12-16T10:57:33.878Z,15.07
2018-12-16T11:00:01.408Z,12.60
2018-12-16T11:02:28.845Z,16.03
2018-12-16T11:04:56.259Z,13.03
2018-12-16T11:07:23.700Z,11.77
2018-12-16T11:09:51.049Z,13.93
2018-12-16T11:12:18.722Z,14.33
2018-12-16T11:14:46.162Z,22.57
2018-12-16T11:17:13.602Z,19.33
2018-12-16T11:19:41.025Z,17.03
2018-12-16T11:22:08.440Z,15.50
2018-12-16T11:24:35.863Z,12.80
2018-12-16T11:27:03.328Z,13.80
2018-12-16T11:29:30.822Z,15.83
2018-12-16T11:31:58.240Z,17.47
2018-12-16T11:34:25.682Z,15.43
2018-12-16T11:36:53.144Z,14.43
2018-12-16T11:39:20.586Z,13.63
2018-12-16T11:41:47.994Z,17.40
2018-12-16T11:44:15.439Z,17.43
2018-12-16T11:46:42.875Z,13.27
2018-12-16T11:49:10.270Z,13.60
2018-12-16T11:51:38.020Z,17.70
2018-12-16T11:54:05.464Z,20.40
2018-12-16T11:56:32.916Z,16.07
2018-12-16T11:59:00.476Z,21.07
2018-12-16T12:01:27.837Z,20.20
2018-12-16T12:03:55.290Z,15.90
2018-12-16T12:06:22.813Z,18.30
2018-12-16T12:08:50.275Z,16.53
2018-12-16T12:11:17.649Z,20.67
2018-12-16T12:13:45.105Z,18.77
2018-12-16T12:16:12.561Z,13.37
2018-12-16T12:18:39.955Z,15.30
2018-12-16T12:21:07.377Z,15.10
2018-12-16T12:23:34.789Z,12.03
2018-12-16T12:26:02.197Z,18.50
2018-12-16T12:28:29.860Z,15.03
2018-12-16T12:30:57.521Z,12.17
2018-12-16T12:33:24.919Z,14.33
2018-12-16T12:35:52.412Z,16.87
2018-12-16T12:38:19.835Z,14.03
2018-12-16T12:40:47.251Z,12.87
2018-12-16T12:43:14.631Z,15.20
2018-12-16T12:45:42.041Z,13.60
2018-12-16T12:48:09.429Z,12.80
2018-12-16T12:50:36.853Z,16.70
2018-12-16T12:53:04.322Z,15.27
2018-12-16T12:55:31.855Z,12.63
2018-12-16T12:57:59.281Z,17.57
2018-12-16T13:00:26.776Z,15.97
2018-12-16T13:02:54.195Z,15.13
2018-12-16T13:05:21.611Z,20.07
2018-12-16T13:07:49.054Z,15.57
2018-12-16T13:10:16.524Z,16.90
2018-12-16T13:12:43.936Z,13.97
2018-12-16T13:15:11.530Z,19.83
2018-12-16T13:17:39.091Z,15.83
2018-12-16T13:20:06.765Z,15.63
2018-12-16T13:22:34.554Z,16.80
2018-12-16T13:25:13.380Z,16.80
2018-12-16T13:27:40.943Z,18.80
2018-12-16T13:30:08.546Z,19.27
2018-12-16T13:32:35.958Z,13.83
2018-12-16T13:35:03.791Z,16.53
2018-12-16T13:37:31.202Z,19.63
2018-12-16T13:39:58.636Z,16.17
2018-12-16T13:42:26.099Z,14.57
2018-12-16T13:44:53.544Z,17.67
2018-12-16T13:47:20.916Z,14.07
2018-12-16T13:49:48.358Z,14.83
2018-12-16T13:52:15.788Z,13.83
2018-12-16T13:54:43.191Z,16.00
2018-12-16T13:57:10.628Z,16.70
2018-12-16T13:59:38.097Z,16.33
2018-12-16T14:02:05.535Z,18.47
2018-12-16T14:04:32.940Z,20.27
2018-12-16T14:07:00.401Z,16.80
2018-12-16T14:09:27.844Z,22.07
2018-12-16T14:11:55.517Z,20.70
2018-12-16T14:14:22.983Z,18.47
2018-12-16T14:16:50.409Z,15.03
2018-12-16T14:19:17.869Z,15.50
2018-12-16T14:21:45.317Z,15.17
2018-12-16T14:24:12.731Z,18.00
2018-12-16T14:26:40.146Z,21.43
2018-12-16T14:29:07.670Z,21.70
2018-12-16T14:31:35.079Z,20.30
2018-12-16T14:34:02.486Z,18.10
2018-12-16T14:36:29.941Z,19.97
2018-12-16T14:38:57.481Z,25.47
2018-12-16T14:41:24.886Z,18.57
2018-12-16T14:43:52.315Z,23.93
2018-12-16T14:46:19.767Z,19.20
2018-12-16T14:48:47.193Z,26.67
2018-12-16T14:51:14.610Z,21.23
2018-12-16T14:53:42.020Z,22.20
2018-12-16T14:56:09.454Z,22.03
2018-12-16T14:58:37.001Z,24.97
2018-12-16T15:01:04.418Z,21.00
2018-12-16T15:03:31.818Z,34.77
2018-12-16T15:05:59.246Z,40.10
2018-12-16T15:08:26.786Z,26.30
2018-12-16T15:10:54.181Z,23.77
2018-12-16T15:13:21.737Z,26.03
2018-12-16T15:15:49.246Z,23.13
2018-12-16T15:18:16.637Z,27.37
2018-12-16T15:20:44.028Z,20.60
2018-12-16T15:23:11.441Z,27.13
2018-12-16T15:25:38.884Z,24.20
2018-12-16T15:28:06.274Z,20.57
2018-12-16T15:30:33.677Z,22.43
2018-12-16T15:33:01.079Z,22.90
2018-12-16T15:35:28.627Z,26.00
2018-12-16T15:37:56.037Z,47.00
2018-12-16T15:40:23.447Z,39.03
2018-12-16T15:42:50.942Z,30.47
2018-12-16T15:45:18.342Z,43.17
2018-12-16T15:47:45.833Z,39.27
2018-12-16T15:50:13.260Z,36.20
2018-12-16T15:52:40.677Z,31.77
2018-12-16T15:55:09.728Z,24.97
2018-12-16T15:57:37.129Z,21.80
2018-12-16T16:00:05.013Z,19.37
2018-12-16T16:02:32.395Z,26.50
2018-12-16T16:04:59.777Z,22.23
2018-12-16T16:07:27.261Z,18.63
2018-12-16T16:09:54.710Z,22.33
2018-12-16T16:12:22.492Z,20.00
2018-12-16T16:14:49.926Z,20.83
2018-12-16T16:17:17.364Z,27.07
2018-12-16T16:19:44.790Z,28.57
2018-12-16T16:22:12.176Z,27.53
2018-12-16T16:24:39.544Z,24.80
2018-12-16T16:27:07.025Z,25.80
2018-12-16T16:29:34.457Z,25.60
2018-12-16T16:32:01.856Z,25.40
2018-12-16T16:34:29.273Z,25.53
2018-12-16T16:36:56.758Z,22.10
2018-12-16T16:39:24.164Z,27.83
2018-12-16T16:41:51.586Z,26.27
2018-12-16T16:44:26.140Z,27.73
2018-12-16T16:47:04.331Z,26.33
2018-12-16T16:49:32.189Z,25.30
2018-12-16T16:51:59.642Z,22.67
2018-12-16T16:54:27.067Z,22.10
2018-12-16T16:56:54.497Z,22.33
2018-12-16T16:59:22.056Z,24.40
2018-12-16T17:01:49.627Z,25.67
2018-12-16T17:04:17.047Z,25.63
2018-12-16T17:06:44.481Z,23.97
2018-12-16T17:09:12.029Z,27.90
2018-12-16T17:11:39.465Z,33.90
2018-12-16T17:14:07.056Z,30.33
2018-12-16T17:16:34.460Z,64.33
2018-12-16T17:19:02.216Z,33.73
2018-12-16T17:21:30.229Z,32.83
2018-12-16T17:23:57.670Z,34.63
2018-12-16T17:26:30.137Z,33.00
2018-12-16T17:28:54.638Z,33.40
2018-12-16T17:31:22.152Z,33.53
2018-12-16T17:33:49.553Z,28.67
2018-12-16T17:36:17.085Z,27.00
2018-12-16T17:38:44.479Z,27.17
2018-12-16T17:41:11.925Z,27.33
2018-12-16T17:43:39.328Z,24.07
2018-12-16T17:46:06.742Z,23.43
2018-12-16T17:48:34.282Z,56.90
2018-12-16T17:51:01.680Z,27.13
2018-12-16T17:53:29.128Z,25.50
2018-12-16T17:55:56.929Z,26.37
2018-12-16T17:58:24.951Z,28.17
2018-12-16T18:00:52.485Z,24.30
2018-12-16T18:03:19.883Z,27.03
2018-12-16T18:05:47.318Z,31.07
2018-12-16T18:08:14.736Z,28.30
2018-12-16T18:10:42.197Z,27.17
2018-12-16T18:13:09.574Z,32.20
2018-12-16T18:15:37.075Z,26.73
2018-12-16T18:18:04.535Z,28.03
2018-12-16T18:20:32.012Z,25.67
2018-12-16T18:22:59.599Z,32.53
2018-12-16T18:25:27.050Z,34.47
2018-12-16T18:27:54.524Z,34.60
2018-12-16T18:30:21.951Z,32.20
2018-12-16T18:32:49.405Z,34.23
2018-12-16T18:35:16.866Z,32.47
2018-12-16T18:37:44.516Z,28.73
2018-12-16T18:40:11.966Z,26.63
2018-12-16T18:42:39.389Z,33.50
2018-12-16T18:45:07.057Z,36.50
2018-12-16T18:47:34.453Z,33.07
2018-12-16T18:50:03.949Z,30.40
2018-12-16T18:52:31.401Z,31.00
2018-12-16T18:54:58.794Z,30.97
2018-12-16T18:57:26.248Z,28.90
2018-12-16T18:59:53.672Z,24.80
2018-12-16T19:02:21.078Z,29.60
2018-12-16T19:04:48.484Z,31.00
2018-12-16T19:07:15.882Z,27.97
2018-12-16T19:09:43.322Z,25.17
2018-12-16T19:12:10.752Z,29.70
2018-12-16T19:14:38.625Z,26.80
2018-12-16T19:17:06.038Z,34.67
2018-12-16T19:19:33.582Z,28.17
2018-12-16T19:22:01.030Z,28.77
2018-12-16T19:24:28.410Z,27.57
2018-12-16T19:26:58.447Z,26.20
2018-12-16T19:29:25.293Z,27.47
2018-12-16T19:31:52.714Z,28.43
2018-12-16T19:34:20.152Z,26.03
2018-12-16T19:36:47.549Z,23.23
2018-12-16T19:39:15.027Z,26.03
2018-12-16T19:41:42.435Z,26.10
2018-12-16T19:44:09.964Z,25.83
2018-12-16T19:46:37.422Z,66.57
2018-12-16T19:49:04.819Z,49.93
2018-12-16T19:51:32.345Z,57.07
2018-12-16T19:53:59.806Z,59.77
2018-12-16T19:56:27.219Z,53.43
2018-12-16T19:58:54.899Z,40.07
2018-12-16T20:01:22.322Z,35.37
2018-12-16T20:03:55.453Z,32.20
2018-12-16T20:06:28.645Z,35.70
2018-12-16T20:08:56.079Z,39.07
2018-12-16T20:11:23.625Z,66.63
2018-12-16T20:13:51.067Z,33.07
2018-12-16T20:16:18.505Z,28.13
2018-12-16T20:18:45.886Z,27.80
2018-12-16T20:21:13.347Z,29.13
2018-12-16T20:23:40.791Z,24.90
2018-12-16T20:26:08.324Z,24.73
2018-12-16T20:28:35.744Z,25.67
2018-12-16T20:31:03.261Z,24.47
2018-12-16T20:33:30.705Z,23.53
2018-12-16T20:35:58.240Z,25.70
2018-12-16T20:38:25.851Z,22.53
2018-12-16T20:40:53.558Z,22.97
2018-12-16T20:43:20.956Z,26.13
2018-12-16T20:45:48.592Z,27.20
2018-12-16T20:48:16.013Z,27.50
2018-12-16T20:50:43.440Z,22.83
2018-12-16T20:53:10.891Z,22.10
2018-12-16T20:55:38.301Z,26.03
2018-12-16T20:58:05.758Z,20.70
2018-12-16T21:00:33.167Z,20.07
2018-12-16T21:03:00.703Z,27.47
2018-12-16T21:05:28.146Z,24.23
2018-12-16T21:07:55.570Z,22.20
2018-12-16T21:10:23.021Z,25.00
2018-12-16T21:12:56.169Z,24.80
2018-12-16T21:15:29.287Z,26.80
2018-12-16T21:18:02.451Z,37.57
2018-12-16T21:20:29.875Z,41.67
2018-12-16T21:22:57.317Z,60.47
2018-12-16T21:25:24.776Z,34.20
2018-12-16T21:27:52.273Z,26.93
2018-12-16T21:30:19.723Z,29.27
2018-12-16T21:32:47.231Z,30.67
2018-12-16T21:35:14.717Z,29.03
2018-12-16T21:37:42.153Z,28.03
2018-12-16T21:40:09.688Z,23.90
2018-12-16T21:42:37.225Z,24.97
2018-12-16T21:45:05.221Z,20.80
2018-12-16T21:47:32.735Z,37.77
2018-12-16T21:50:00.198Z,48.20
2018-12-16T21:52:27.709Z,41.50
2018-12-16T21:54:55.168Z,53.87
2018-12-16T21:57:22.591Z,30.33
2018-12-16T21:59:50.187Z,24.17
2018-12-16T22:02:17.657Z,23.17
2018-12-16T22:04:45.112Z,26.50
2018-12-16T22:07:12.581Z,26.63
2018-12-16T22:09:39.978Z,26.87
2018-12-16T22:12:07.915Z,27.93
2018-12-16T22:14:36.028Z,31.57
2018-12-16T22:17:03.717Z,30.67
2018-12-16T22:19:31.137Z,31.57
2018-12-16T22:21:58.578Z,32.30
2018-12-16T22:24:26.023Z,30.97
2018-12-16T22:26:53.474Z,33.03
2018-12-16T22:29:20.891Z,32.87
2018-12-16T22:31:48.454Z,33.93
2018-12-16T22:34:15.895Z,29.47
2018-12-16T22:36:43.295Z,29.70
2018-12-16T22:39:10.694Z,32.67
2018-12-16T22:41:38.107Z,27.40
2018-12-16T22:44:05.612Z,26.67
2018-12-16T22:46:33.149Z,28.07
2018-12-16T22:49:00.541Z,27.97
2018-12-16T22:51:27.990Z,34.60
2018-12-16T22:53:55.353Z,29.87
2018-12-16T22:56:22.848Z,22.17
2018-12-16T22:58:54.313Z,21.80
2018-12-16T23:01:20.010Z,22.30
2018-12-16T23:03:47.410Z,21.20
2018-12-16T23:06:14.829Z,21.33
2018-12-16T23:08:42.226Z,19.00
2018-12-16T23:11:09.602Z,21.73
2018-12-16T23:13:37.023Z,20.10
2018-12-16T23:16:04.454Z,14.93
2018-12-16T23:18:31.866Z,21.33
2018-12-16T23:20:59.321Z,16.70
2018-12-16T23:23:26.719Z,17.97
2018-12-16T23:25:54.157Z,22.80
2018-12-16T23:28:21.865Z,15.33
2018-12-16T23:30:49.263Z,19.13
2018-12-16T23:33:16.749Z,21.20
2018-12-16T23:35:44.124Z,14.70
2018-12-16T23:38:11.545Z,15.37
2018-12-16T23:40:38.940Z,15.43
2018-12-16T23:43:06.312Z,17.57
2018-12-16T23:45:33.865Z,14.33
2018-12-16T23:48:01.257Z,14.03
2018-12-16T23:50:28.641Z,14.03
2018-12-16T23:52:56.050Z,15.30
2018-12-16T23:55:23.456Z,13.70
2018-12-16T23:57:50.857Z,14.63
